Aeroporto :
LOGIN :

Iscrizione | Disclaimer

   EN    FR    IT 

 










Sommario :    VFR   VFR Marginale   IFR   IFR Intensivo   IFR Molto Intensivo
Visibilità : 
Base nubi : 
>= 8 km
>= 3000ft
5 / 8 km
1000 / 3000 ft
1500m / 5 km
500 / 1000 ft
800 / 1500m
200 / 500 ft
< 800m
< 200 ft
Simboli :   Temporali  Nebbia  Neve Forte  Precipitazioni Forti  Vento > 20 kt
SIGMETs :   Varie  Temporali  Ghiacco  Turbolenza  Onda orograficha  Ceneri Vulcaniche






- Altitudine del aeroporto : 600 ft
- Codice IATA : VIE


LOWW - Vienna Schwechat

ULTIMO METAR :
  • 051620Z 14013KT 9000 FEW012 BKN014 M01/M04 Q1026 TEMPO BKN015

METARs OBSOLETI :
  • 051550Z 14014KT 9999 FEW013 SCT014 BKN015 M01/M04 Q1025 BECMG BKN014
  • 051520Z 14013KT 9000 FEW012 BKN014 M01/M03 Q1025 NOSIG
  • 051450Z 14013KT 9999 FEW012 BKN013 M01/M03 Q1025 NOSIG
  • 051420Z 14013KT 9999 FEW012 BKN013 M00/M03 Q1025 NOSIG
  • 051350Z 14014KT 9999 FEW013 BKN015 M00/M03 Q1025 BECMG BKN014

TAF TAF LOWW
Valido dal 05 a 15 ore il 06 a 21 ore UTC


051415Z 0515/0621 15012KT 9999 OVC012 TXM01/0515Z TNM02/0608Z
BECMG 0516/0519 7000 OVC009
BECMG 0600/0603 14006KT 2000 FZBCFG BR FEW001 OVC002
TEMPO 0606/0611 0600 FZFG OVC001
PROB30
TEMPO 0612/0615 1200 OVC004
BECMG 0615/0618 OVC001



MetMap, La meteo Aeronautica in un colpo d'occhio ! - Copyright ORBIFLY Dicembre 2007 - Disclaimer

ORBIFLY MET'MAP TEAM :

Programmazione e sviluppo : Alexandra Zaïnal
Concezione : Baudouin d'Aumeries
Aiuto per la programmazione : Marc-Olivier Méhu
Supporto tecnico e logistico : Manuel Goepfert
Aiuto per la traduzione : Arnaldo La Scala

Contatto : metmap@orbifly.com




FONTI E CREDITI :

   NOAA